Time;durP1;ratioP1;P1;durP2;ratioP2;P2;SDS_P1;SDS_P2;PMS_P1;PMS_P2;Temp;Humidity;BMP_temperature;BMP_pressure;BME280_temperature;BME280_humidity;BME280_pressure;Samples;Min_cycle;Max_cycle;Signal;HPM_P1;HPM_P2
2022/11/23 00:01:21;;;;;;;1.50;1.10;;;18.70;74.20;;;;;;5052541;28;20029;-68
2022/11/23 00:03:48;;;;;;;3.40;1.10;;;18.70;75.30;;;;;;5051718;28;20027;-68
2022/11/23 00:06:14;;;;;;;1.65;1.13;;;18.60;74.30;;;;;;5052581;28;20049;-68
2022/11/23 00:08:39;;;;;;;2.00;1.13;;;18.70;74.50;;;;;;5053611;28;20456;-67
2022/11/23 00:11:05;;;;;;;3.58;1.13;;;18.70;75.70;;;;;;5035855;28;20087;-68
2022/11/23 00:13:31;;;;;;;3.45;1.27;;;18.60;75.90;;;;;;5052467;28;20041;-68
2022/11/23 00:15:56;;;;;;;2.63;1.27;;;18.60;74.70;;;;;;5053433;28;20108;-68
2022/11/23 00:18:22;;;;;;;2.15;1.20;;;18.60;74.70;;;;;;5052246;28;20040;-68
2022/11/23 00:20:48;;;;;;;3.58;1.05;;;18.60;74.70;;;;;;5037060;28;20044;-68
2022/11/23 00:23:13;;;;;;;2.38;1.23;;;18.60;74.80;;;;;;5033673;28;20116;-68
2022/11/23 00:25:39;;;;;;;2.83;1.27;;;18.60;74.90;;;;;;5033300;28;20551;-68
2022/11/23 00:28:05;;;;;;;2.08;1.23;;;18.60;74.90;;;;;;5032193;28;20017;-68
2022/11/23 00:30:30;;;;;;;1.90;1.20;;;18.50;74.80;;;;;;5033258;28;20067;-68
2022/11/23 00:32:56;;;;;;;1.35;1.13;;;18.50;74.90;;;;;;5033158;28;20025;-68
2022/11/23 00:35:22;;;;;;;1.38;1.02;;;18.50;74.80;;;;;;5032200;28;20531;-68
2022/11/23 00:37:48;;;;;;;2.17;1.15;;;18.50;75.00;;;;;;5049012;28;20033;-68
2022/11/23 00:40:14;;;;;;;2.92;1.75;;;18.50;75.10;;;;;;5051970;28;20029;-68
2022/11/23 00:42:39;;;;;;;1.92;1.23;;;18.50;75.10;;;;;;5051719;28;20033;-68
2022/11/23 00:45:05;;;;;;;1.52;1.00;;;18.50;75.10;;;;;;5052796;28;20502;-68
2022/11/23 00:47:31;;;;;;;1.10;1.00;;;18.50;75.20;;;;;;5052822;28;20017;-68
2022/11/23 00:49:57;;;;;;;1.75;1.00;;;18.50;75.30;;;;;;5051620;28;20115;-68
2022/11/23 00:52:22;;;;;;;4.13;1.30;;;18.50;75.30;;;;;;5051657;28;20040;-68
2022/11/23 00:54:48;;;;;;;1.58;1.23;;;18.40;75.30;;;;;;5052702;28;20028;-68
2022/11/23 00:57:14;;;;;;;1.92;1.30;;;18.50;75.40;;;;;;5052897;28;20078;-68
2022/11/23 00:59:39;;;;;;;0.88;0.80;;;18.50;75.40;;;;;;5051442;28;20411;-68
2022/11/23 01:02:05;;;;;;;1.58;1.10;;;18.40;75.40;;;;;;5052575;28;20029;-67
2022/11/23 01:04:30;;;;;;;1.60;0.90;;;18.40;75.30;;;;;;5051561;28;20025;-68
2022/11/23 01:06:57;;;;;;;2.03;1.10;;;18.40;75.40;;;;;;5052425;28;20435;-68
2022/11/23 01:09:25;;;;;;;2.25;0.98;;;18.40;75.40;;;;;;5052495;28;20483;-68
2022/11/23 01:11:51;;;;;;;4.50;1.20;;;18.40;75.40;;;;;;5051600;28;20025;-68
2022/11/23 01:14:17;;;;;;;1.63;1.13;;;18.40;75.50;;;;;;5051105;28;20036;-68
2022/11/23 01:16:43;;;;;;;3.00;1.33;;;18.40;75.70;;;;;;5051282;28;20025;-68
2022/11/23 01:19:13;;;;;;;5.05;1.30;;;18.40;75.70;;;;;;5050071;28;20021;-68
2022/11/23 01:21:39;;;;;;;2.03;1.13;;;18.40;75.80;;;;;;5031226;28;20095;-68
2022/11/23 01:24:12;;;;;;;3.25;1.17;;;18.40;75.80;;;;;;5032472;28;20392;-67
2022/11/23 01:26:38;;;;;;;1.73;1.10;;;18.40;75.80;;;;;;5032634;28;20018;-67
2022/11/23 01:29:04;;;;;;;2.50;1.02;;;18.40;75.80;;;;;;5032136;28;20104;-68
2022/11/23 01:31:29;;;;;;;1.60;1.27;;;18.40;75.90;;;;;;5031176;28;20139;-68
2022/11/23 01:33:57;;;;;;;2.38;1.08;;;18.40;75.90;;;;;;5032300;28;20037;-68
2022/11/23 01:36:25;;;;;;;1.23;0.90;;;18.40;75.90;;;;;;5035589;28;20029;-67
2022/11/23 01:38:51;;;;;;;1.58;1.00;;;18.40;75.90;;;;;;5034575;28;20392;-68
2022/11/23 01:41:21;;;;;;;1.85;1.10;;;18.40;75.90;;;;;;5050986;28;20036;-68
2022/11/23 01:43:47;;;;;;;2.33;0.75;;;18.40;75.90;;;;;;5051912;28;20095;-68
2022/11/23 01:46:13;;;;;;;1.67;1.00;;;18.40;76.00;;;;;;5051029;28;20068;-68
2022/11/23 01:48:48;;;;;;;3.42;0.95;;;18.40;76.00;;;;;;5052122;28;20032;-68
2022/11/23 01:51:15;;;;;;;5.63;1.02;;;18.40;76.00;;;;;;5051147;28;20039;-68
2022/11/23 01:53:41;;;;;;;2.08;1.10;;;18.40;76.00;;;;;;5050994;28;20107;-68
2022/11/23 01:56:09;;;;;;;2.28;1.05;;;18.40;76.10;;;;;;5033999;28;20579;-68
2022/11/23 01:58:37;;;;;;;1.92;1.17;;;18.40;76.10;;;;;;5050869;28;20048;-68
2022/11/23 02:01:03;;;;;;;23.00;2.38;;;18.40;76.10;;;;;;5050811;28;20115;-68
2022/11/23 02:03:29;;;;;;;2.28;1.00;;;18.40;76.10;;;;;;5034352;28;20112;-68
2022/11/23 02:05:59;;;;;;;1.27;0.80;;;18.40;76.10;;;;;;5051979;28;20025;-68
2022/11/23 02:08:24;;;;;;;4.07;1.00;;;18.40;76.10;;;;;;5034533;28;20030;-68
2022/11/23 02:10:50;;;;;;;7.22;1.13;;;18.40;76.10;;;;;;5034287;28;20597;-68
2022/11/23 02:13:16;;;;;;;1.38;0.80;;;18.40;76.10;;;;;;5034393;28;20399;-67
2022/11/23 02:15:41;;;;;;;1.17;0.80;;;18.40;76.10;;;;;;5050816;28;20025;-68
2022/11/23 02:18:18;;;;;;;3.28;0.73;;;18.40;76.20;;;;;;5033804;28;20032;-68
2022/11/23 02:20:44;;;;;;;1.52;0.70;;;18.40;76.20;;;;;;5018729;28;20104;-68
2022/11/23 02:23:29;;;;;;;4.78;1.55;;;18.40;76.20;;;;;;5030777;28;20109;-68
2022/11/23 02:26:01;;;;;;;2.30;0.90;;;18.30;76.20;;;;;;5030701;28;20040;-67
2022/11/23 02:28:42;;;;;;;1.67;0.82;;;18.40;76.30;;;;;;5033725;28;20499;-67
2022/11/23 02:31:07;;;;;;;2.17;1.08;;;18.40;76.40;;;;;;5034525;28;20100;-67
2022/11/23 02:33:36;;;;;;;1.38;0.90;;;18.40;76.40;;;;;;5034482;28;20564;-68
2022/11/23 02:36:01;;;;;;;1.95;0.90;;;18.30;76.30;;;;;;5036769;28;20017;-67
2022/11/23 02:38:31;;;;;;;1.67;0.88;;;18.30;76.40;;;;;;5055362;28;20029;-68
2022/11/23 02:40:57;;;;;;;0.80;0.80;;;18.40;76.50;;;;;;5053897;28;20067;-67
2022/11/23 02:43:22;;;;;;;3.05;0.85;;;18.30;76.40;;;;;;5055454;28;20020;-68
2022/11/23 02:46:00;;;;;;;4.05;0.93;;;18.30;76.40;;;;;;5055539;28;20112;-68
2022/11/23 02:48:26;;;;;;;1.33;0.80;;;18.30;76.50;;;;;;5037414;28;20025;-68
2022/11/23 02:50:52;;;;;;;1.63;0.90;;;18.30;76.50;;;;;;5055069;28;20035;-68
2022/11/23 02:53:17;;;;;;;4.57;0.93;;;18.30;76.50;;;;;;5054116;28;20033;-68
2022/11/23 02:55:43;;;;;;;1.42;0.90;;;18.30;76.50;;;;;;5053841;28;20028;-68
2022/11/23 02:58:08;;;;;;;1.83;1.00;;;18.30;76.50;;;;;;5053598;28;20049;-68
2022/11/23 03:00:34;;;;;;;5.35;1.13;;;18.30;76.50;;;;;;5055181;28;20025;-68
2022/11/23 03:03:00;;;;;;;2.00;1.00;;;18.30;76.50;;;;;;5053554;28;20025;-67
2022/11/23 03:05:26;;;;;;;0.80;0.70;;;18.30;76.50;;;;;;5037201;28;20483;-68
2022/11/23 03:07:51;;;;;;;2.13;0.70;;;18.30;76.60;;;;;;5053845;28;20025;-68
2022/11/23 03:10:17;;;;;;;0.98;0.88;;;18.30;76.60;;;;;;5053402;28;20056;-67
2022/11/23 03:12:43;;;;;;;1.40;0.90;;;18.30;76.60;;;;;;5053882;28;20327;-68
2022/11/23 03:15:09;;;;;;;1.38;0.82;;;18.30;76.70;;;;;;5053441;28;20029;-68
2022/11/23 03:17:35;;;;;;;1.42;0.63;;;18.30;76.70;;;;;;5054778;28;20033;-68
2022/11/23 03:20:00;;;;;;;1.00;0.75;;;18.30;76.70;;;;;;5027043;28;20439;-68
2022/11/23 03:22:26;;;;;;;1.85;0.80;;;18.30;77.10;;;;;;5034530;28;20131;-68
2022/11/23 03:24:52;;;;;;;1.25;0.90;;;18.30;76.70;;;;;;5033337;28;20025;-68
2022/11/23 03:27:17;;;;;;;0.95;0.70;;;18.30;76.70;;;;;;5033446;28;20026;-68
2022/11/23 03:29:43;;;;;;;3.33;0.80;;;18.30;76.70;;;;;;5034486;28;20029;-68
2022/11/23 03:32:09;;;;;;;1.33;1.17;;;18.30;76.70;;;;;;5033281;28;20025;-68
2022/11/23 03:34:34;;;;;;;1.67;0.80;;;18.30;76.70;;;;;;5034562;28;20068;-68
2022/11/23 03:37:00;;;;;;;3.22;0.80;;;18.30;76.70;;;;;;5042409;28;20117;-68
2022/11/23 03:39:25;;;;;;;2.00;0.98;;;18.30;76.70;;;;;;5052733;28;20057;-67
2022/11/23 03:41:51;;;;;;;1.95;0.90;;;18.30;76.80;;;;;;5054352;28;20071;-68
2022/11/23 03:44:17;;;;;;;1.50;0.90;;;18.30;76.80;;;;;;5053995;28;20028;-68
2022/11/23 03:46:42;;;;;;;2.08;0.70;;;18.30;76.90;;;;;;5054274;28;20036;-68
2022/11/23 03:49:08;;;;;;;6.25;0.90;;;18.30;76.90;;;;;;5052798;28;20025;-68
2022/11/23 03:51:33;;;;;;;1.05;0.85;;;18.30;76.90;;;;;;5054055;28;20029;-68
2022/11/23 03:53:59;;;;;;;1.15;0.80;;;18.30;77.00;;;;;;5053838;28;20400;-68
2022/11/23 03:56:25;;;;;;;2.63;0.80;;;18.20;76.90;;;;;;5054011;28;20025;-67
2022/11/23 03:58:50;;;;;;;2.40;0.65;;;18.30;77.00;;;;;;5036025;28;20048;-68
2022/11/23 04:01:16;;;;;;;2.58;0.73;;;18.30;77.00;;;;;;5053786;28;20037;-68
2022/11/23 04:03:41;;;;;;;0.52;0.52;;;18.20;76.90;;;;;;5053893;28;20029;-68
2022/11/23 04:06:07;;;;;;;2.45;0.77;;;18.20;77.00;;;;;;5053763;28;20029;-68
2022/11/23 04:08:33;;;;;;;3.08;0.90;;;18.30;77.10;;;;;;5046654;28;20476;-68
2022/11/23 04:10:58;;;;;;;1.10;0.70;;;18.20;77.10;;;;;;5041358;28;20026;-68
2022/11/23 04:13:24;;;;;;;2.58;0.80;;;18.20;77.00;;;;;;5029526;28;20028;-67
2022/11/23 04:15:50;;;;;;;1.85;0.63;;;18.20;77.00;;;;;;5052991;28;20104;-68
2022/11/23 04:18:15;;;;;;;5.93;1.20;;;18.20;77.00;;;;;;5054146;28;20048;-68
2022/11/23 04:20:41;;;;;;;2.65;0.80;;;18.20;77.10;;;;;;5037626;28;20044;-68
2022/11/23 04:23:07;;;;;;;4.03;0.65;;;18.30;77.30;;;;;;5032397;28;20108;-68
2022/11/23 04:25:32;;;;;;;2.63;0.85;;;18.20;77.20;;;;;;5033958;28;20049;-68
2022/11/23 04:27:58;;;;;;;3.15;0.93;;;18.20;77.30;;;;;;5032761;28;20041;-68
2022/11/23 04:30:24;;;;;;;8.77;1.00;;;18.20;77.30;;;;;;5034079;28;20463;-67
2022/11/23 04:32:49;;;;;;;3.50;0.93;;;18.20;77.40;;;;;;5034048;28;20025;-68
2022/11/23 04:35:15;;;;;;;4.10;0.80;;;18.20;77.40;;;;;;5032714;28;20034;-68
2022/11/23 04:37:41;;;;;;;6.63;0.98;;;18.20;77.50;;;;;;5047164;28;20040;-68
2022/11/23 04:40:07;;;;;;;12.18;0.90;;;18.20;77.40;;;;;;5052460;28;20037;-67
2022/11/23 04:42:32;;;;;;;3.60;0.80;;;18.20;77.40;;;;;;5053556;28;20021;-68
2022/11/23 04:44:58;;;;;;;4.32;0.77;;;18.20;77.30;;;;;;5052492;28;20013;-67
2022/11/23 04:47:24;;;;;;;1.10;0.65;;;18.20;77.40;;;;;;5052324;28;20025;-67
2022/11/23 04:49:49;;;;;;;2.78;0.93;;;18.20;77.50;;;;;;5051911;28;20464;-67
2022/11/23 04:52:15;;;;;;;2.65;0.90;;;18.20;77.50;;;;;;5053068;28;20049;-67
2022/11/23 04:54:41;;;;;;;2.72;0.90;;;18.20;77.50;;;;;;5052318;28;20451;-67
2022/11/23 04:57:06;;;;;;;5.10;1.00;;;18.20;77.50;;;;;;5053545;28;20116;-67
2022/11/23 04:59:32;;;;;;;2.97;1.15;;;18.20;77.50;;;;;;5053354;28;20057;-67
2022/11/23 05:01:58;;;;;;;3.25;0.90;;;18.20;77.50;;;;;;5053366;28;20108;-68
2022/11/23 05:04:23;;;;;;;5.22;0.73;;;18.20;77.50;;;;;;5053028;28;20029;-68
2022/11/23 05:06:49;;;;;;;3.47;0.90;;;18.20;77.50;;;;;;5052976;28;20024;-68
2022/11/23 05:09:15;;;;;;;2.35;0.60;;;18.20;77.40;;;;;;5053136;28;20029;-68
2022/11/23 05:11:40;;;;;;;4.28;0.85;;;18.20;77.50;;;;;;5053291;28;20142;-68
2022/11/23 05:14:06;;;;;;;1.90;0.65;;;18.20;77.50;;;;;;5053021;28;20091;-68
2022/11/23 05:16:31;;;;;;;3.65;1.02;;;18.20;77.60;;;;;;5053119;28;20388;-68
2022/11/23 05:18:57;;;;;;;2.42;0.70;;;18.20;77.70;;;;;;5050979;28;20383;-68
2022/11/23 05:21:23;;;;;;;7.97;1.20;;;18.20;77.70;;;;;;5032807;28;20026;-68
2022/11/23 05:23:48;;;;;;;3.53;1.15;;;18.20;77.70;;;;;;5033026;28;20033;-68
2022/11/23 05:26:14;;;;;;;3.45;1.10;;;18.20;77.80;;;;;;5031678;28;20022;-68
2022/11/23 05:28:39;;;;;;;2.55;0.80;;;18.20;77.70;;;;;;5033221;28;20018;-68
2022/11/23 05:31:05;;;;;;;1.30;0.80;;;18.20;77.80;;;;;;5032919;28;20439;-67
2022/11/23 05:33:31;;;;;;;2.10;0.80;;;18.20;77.80;;;;;;5031506;28;20029;-68
2022/11/23 05:35:56;;;;;;;2.47;0.75;;;18.20;77.80;;;;;;5032442;28;20032;-68
2022/11/23 05:38:22;;;;;;;4.78;0.80;;;18.20;77.90;;;;;;5052832;28;20055;-68
2022/11/23 05:40:48;;;;;;;4.07;0.85;;;18.20;77.90;;;;;;5052811;28;20100;-68
2022/11/23 05:43:13;;;;;;;3.42;0.82;;;18.20;77.80;;;;;;5051438;28;20491;-68
2022/11/23 05:45:39;;;;;;;1.63;0.80;;;18.20;77.90;;;;;;5052608;28;20100;-68
2022/11/23 05:48:05;;;;;;;4.72;0.90;;;18.20;77.90;;;;;;5051078;28;20021;-67
2022/11/23 05:50:30;;;;;;;1.08;0.68;;;18.20;77.90;;;;;;5051578;28;20027;-68
2022/11/23 05:52:56;;;;;;;5.55;0.80;;;18.20;77.70;;;;;;5051516;28;20039;-67
2022/11/23 05:55:22;;;;;;;3.70;0.82;;;18.20;77.70;;;;;;5052511;28;20108;-68
2022/11/23 05:57:48;;;;;;;2.05;0.98;;;18.10;77.70;;;;;;5051170;28;20111;-68
2022/11/23 06:00:14;;;;;;;2.10;0.60;;;18.10;77.70;;;;;;5052705;28;20086;-68
2022/11/23 06:02:40;;;;;;;4.68;0.90;;;18.10;77.70;;;;;;5053255;28;20017;-68
2022/11/23 06:05:06;;;;;;;2.03;0.77;;;18.10;77.70;;;;;;5038759;28;20020;-68
2022/11/23 06:07:32;;;;;;;3.33;1.10;;;18.10;77.80;;;;;;5055554;28;20064;-68
2022/11/23 06:09:58;;;;;;;2.60;1.50;;;18.10;77.70;;;;;;5055530;28;20013;-67
2022/11/23 06:12:23;;;;;;;3.47;1.17;;;18.10;77.70;;;;;;5056581;28;20037;-67
2022/11/23 06:14:49;;;;;;;2.45;0.90;;;18.10;77.80;;;;;;5055338;28;20364;-68
2022/11/23 06:17:15;;;;;;;1.88;0.70;;;18.10;77.80;;;;;;5054876;28;20488;-68
2022/11/23 06:19:40;;;;;;;4.68;1.08;;;18.10;77.80;;;;;;5031721;28;20029;-68
2022/11/23 06:22:06;;;;;;;5.90;1.23;;;18.10;77.70;;;;;;5036342;28;20040;-68
2022/11/23 06:24:32;;;;;;;3.33;1.00;;;18.10;77.80;;;;;;5035107;28;20022;-67
2022/11/23 06:26:57;;;;;;;2.60;1.20;;;18.10;77.70;;;;;;5036477;28;20131;-68
2022/11/23 06:29:23;;;;;;;5.60;1.30;;;18.10;77.80;;;;;;5036358;28;20399;-68
2022/11/23 06:31:49;;;;;;;1.85;0.70;;;18.10;77.80;;;;;;5038983;28;20065;-68
2022/11/23 06:34:14;;;;;;;4.75;1.10;;;18.10;77.80;;;;;;5041007;28;20025;-68
2022/11/23 06:36:40;;;;;;;5.25;1.00;;;18.10;77.80;;;;;;5042580;28;20025;-67
2022/11/23 06:39:06;;;;;;;4.28;1.02;;;18.10;77.80;;;;;;5056169;28;20543;-68
2022/11/23 06:41:31;;;;;;;3.05;0.80;;;18.10;77.80;;;;;;5055729;28;20506;-67
2022/11/23 06:43:57;;;;;;;5.53;0.93;;;18.10;77.70;;;;;;5056181;28;20025;-68
2022/11/23 06:46:22;;;;;;;7.47;1.40;;;18.10;77.70;;;;;;5048829;28;20029;-67
2022/11/23 06:48:48;;;;;;;4.63;1.20;;;18.10;77.70;;;;;;5041660;28;20021;-68
2022/11/23 06:51:14;;;;;;;3.70;1.30;;;18.10;77.50;;;;;;5034596;28;20068;-68
2022/11/23 06:53:40;;;;;;;4.22;1.30;;;18.10;77.70;;;;;;5018066;28;20024;-67
2022/11/23 06:56:06;;;;;;;5.88;1.23;;;18.10;77.70;;;;;;5018305;28;20026;-67
2022/11/23 06:58:31;;;;;;;6.25;1.00;;;18.10;77.70;;;;;;5034506;28;20046;-67
2022/11/23 07:01:00;;;;;;;3.28;1.10;;;18.10;77.70;;;;;;5034357;28;20029;-67
2022/11/23 07:03:26;;;;;;;4.93;1.02;;;18.10;77.60;;;;;;5034385;28;20537;-67
2022/11/23 07:05:52;;;;;;;4.70;1.20;;;18.10;77.50;;;;;;5036530;28;20108;-67
2022/11/23 07:08:17;;;;;;;5.30;1.25;;;18.10;77.60;;;;;;5033590;28;20022;-68
2022/11/23 07:10:43;;;;;;;11.45;1.63;;;18.10;77.70;;;;;;5028118;28;20041;-68
2022/11/23 07:13:09;;;;;;;3.30;0.98;;;18.10;77.60;;;;;;5034748;28;20025;-68
2022/11/23 07:15:35;;;;;;;3.08;1.45;;;18.10;77.70;;;;;;5033500;28;20053;-67
2022/11/23 07:18:01;;;;;;;6.85;1.00;;;18.10;77.70;;;;;;5017288;28;20567;-68
2022/11/23 07:20:27;;;;;;;5.78;1.35;;;18.10;77.60;;;;;;5033218;28;20120;-68
2022/11/23 07:23:06;;;;;;;5.53;1.08;;;18.10;77.60;;;;;;5034568;28;20076;-68
2022/11/23 07:25:32;;;;;;;3.20;1.30;;;18.10;77.60;;;;;;5033478;28;20021;-67
2022/11/23 07:27:58;;;;;;;5.88;1.33;;;18.10;77.60;;;;;;5033584;28;20018;-67
2022/11/23 07:30:25;;;;;;;7.60;1.27;;;18.10;77.60;;;;;;5035055;28;20094;-68
2022/11/23 07:32:51;;;;;;;4.80;1.00;;;18.10;77.50;;;;;;5044387;28;20033;-68
2022/11/23 07:35:17;;;;;;;5.70;1.77;;;18.10;77.50;;;;;;5033761;28;20026;-67
2022/11/23 07:37:43;;;;;;;5.88;1.00;;;18.10;77.60;;;;;;5033847;28;20025;-67
2022/11/23 07:40:09;;;;;;;3.35;0.90;;;18.10;77.60;;;;;;5033724;28;20038;-67
2022/11/23 07:42:35;;;;;;;6.65;1.38;;;18.00;77.50;;;;;;5033188;28;20719;-68
2022/11/23 07:45:01;;;;;;;2.67;0.88;;;18.00;77.40;;;;;;5031798;28;20061;-68
2022/11/23 07:47:27;;;;;;;2.40;0.98;;;18.10;77.40;;;;;;5033030;28;20468;-68
2022/11/23 07:49:53;;;;;;;5.63;1.10;;;18.00;77.20;;;;;;5032757;28;20039;-67
2022/11/23 07:52:18;;;;;;;4.78;1.25;;;18.00;77.10;;;;;;5034393;28;20104;-67
2022/11/23 07:54:44;;;;;;;5.18;1.10;;;18.00;77.20;;;;;;5033576;28;20030;-67
2022/11/23 07:57:10;;;;;;;3.58;0.70;;;18.00;77.10;;;;;;5032985;28;20522;-67
2022/11/23 07:59:36;;;;;;;14.05;1.42;;;18.00;77.00;;;;;;5032727;28;20049;-68
2022/11/23 08:02:01;;;;;;;4.45;1.13;;;18.00;77.00;;;;;;5033657;28;20105;-67
2022/11/23 08:04:28;;;;;;;3.15;0.90;;;18.00;78.00;;;;;;5034062;28;20487;-67
2022/11/23 08:06:54;;;;;;;5.60;1.73;;;18.00;76.90;;;;;;5034356;28;20021;-68
2022/11/23 08:09:19;;;;;;;4.70;1.20;;;18.00;77.00;;;;;;5044723;28;20495;-67
2022/11/23 08:11:45;;;;;;;5.07;1.10;;;18.00;76.90;;;;;;5044336;28;20151;-67
2022/11/23 08:14:11;;;;;;;7.78;1.25;;;18.00;76.80;;;;;;5031136;28;20105;-67
2022/11/23 08:16:36;;;;;;;3.85;1.17;;;18.00;76.80;;;;;;5046450;28;20477;-68
2022/11/23 08:19:02;;;;;;;4.25;1.27;;;18.00;76.80;;;;;;5050765;28;20394;-67
2022/11/23 08:21:28;;;;;;;6.68;1.65;;;18.00;76.80;;;;;;5033271;28;20026;-67
2022/11/23 08:23:53;;;;;;;5.05;1.38;;;17.90;76.70;;;;;;5037222;28;20100;-67
2022/11/23 08:26:19;;;;;;;4.28;1.10;;;17.90;76.70;;;;;;5051502;28;20031;-67
2022/11/23 08:28:44;;;;;;;3.63;1.15;;;17.90;76.70;;;;;;5053112;28;20027;-68
2022/11/23 08:31:10;;;;;;;7.03;1.58;;;17.90;76.70;;;;;;5052328;28;20021;-67
2022/11/23 08:33:36;;;;;;;6.18;1.23;;;17.90;76.60;;;;;;5053137;28;20559;-68
2022/11/23 08:36:06;;;;;;;6.32;1.38;;;17.90;76.70;;;;;;5052102;28;20048;-68
2022/11/23 08:38:32;;;;;;;6.32;1.30;;;17.90;76.60;;;;;;5051939;28;20092;-67
2022/11/23 08:40:59;;;;;;;8.02;1.30;;;17.90;76.50;;;;;;5048172;28;20021;-68
2022/11/23 08:43:25;;;;;;;5.43;1.27;;;17.90;76.50;;;;;;5031743;28;20108;-67
2022/11/23 08:45:56;;;;;;;5.28;1.17;;;17.90;76.60;;;;;;5031787;28;20018;-67
2022/11/23 08:48:22;;;;;;;5.53;1.20;;;17.90;76.50;;;;;;5031874;28;20589;-67
2022/11/23 08:50:47;;;;;;;4.80;1.58;;;17.90;76.50;;;;;;5031898;28;20021;-67
2022/11/23 08:53:13;;;;;;;6.38;1.20;;;17.90;76.50;;;;;;5033120;28;20045;-67
2022/11/23 08:55:38;;;;;;;5.78;1.10;;;17.90;76.50;;;;;;5031697;28;20022;-67
2022/11/23 08:58:06;;;;;;;5.25;1.52;;;17.90;76.50;;;;;;5032501;28;20056;-67
2022/11/23 09:00:31;;;;;;;6.93;1.20;;;17.90;76.50;;;;;;5032833;28;20052;-67
2022/11/23 09:02:57;;;;;;;6.63;1.50;;;17.90;76.50;;;;;;5031670;28;20072;-67
2022/11/23 09:05:23;;;;;;;7.88;1.70;;;17.80;76.40;;;;;;5031512;28;20029;-67
2022/11/23 09:07:49;;;;;;;5.10;1.45;;;17.90;76.50;;;;;;5031436;28;20064;-68
2022/11/23 09:10:15;;;;;;;5.20;1.63;;;17.90;76.40;;;;;;5031628;28;20492;-68
2022/11/23 09:12:41;;;;;;;3.78;1.38;;;17.90;76.40;;;;;;5031358;28;20444;-67
2022/11/23 09:15:07;;;;;;;5.95;1.30;;;17.80;77.30;;;;;;5036360;28;20391;-67
2022/11/23 09:17:32;;;;;;;7.97;2.25;;;17.80;76.30;;;;;;5051036;28;20035;-68
2022/11/23 09:19:58;;;;;;;4.68;1.92;;;17.80;76.20;;;;;;5034809;28;20028;-68
2022/11/23 09:22:25;;;;;;;6.57;1.45;;;17.80;76.30;;;;;;5051101;28;20048;-67
2022/11/23 09:24:51;;;;;;;3.95;1.17;;;17.80;76.20;;;;;;5052368;28;20021;-68
2022/11/23 09:27:17;;;;;;;2.85;1.23;;;17.80;76.00;;;;;;5051085;28;20021;-68
2022/11/23 09:29:42;;;;;;;7.47;2.03;;;17.80;76.10;;;;;;5052233;28;20025;-67
2022/11/23 09:32:08;;;;;;;4.47;1.40;;;17.80;76.10;;;;;;5051288;28;20033;-68
2022/11/23 09:34:34;;;;;;;8.95;2.33;;;17.80;76.20;;;;;;5052178;28;20459;-67
2022/11/23 09:36:59;;;;;;;5.18;1.40;;;17.80;76.10;;;;;;5052161;28;20433;-68
2022/11/23 09:39:25;;;;;;;8.93;2.10;;;17.80;76.10;;;;;;5052186;28;20094;-68
2022/11/23 09:42:15;;;;;;;6.40;1.92;;;17.80;76.00;;;;;;5050890;28;20557;-67
2022/11/23 09:44:51;;;;;;;5.45;1.50;;;17.80;76.00;;;;;;5052184;28;20022;-67
2022/11/23 09:47:37;;;;;;;5.05;2.45;;;17.80;76.00;;;;;;5052327;28;20040;-67
2022/11/23 09:50:05;;;;;;;5.82;2.20;;;17.80;76.00;;;;;;5051122;28;20450;-67
2022/11/23 09:52:31;;;;;;;7.72;1.77;;;17.80;76.00;;;;;;5052035;28;20047;-67
2022/11/23 09:55:00;;;;;;;6.22;1.77;;;17.80;76.00;;;;;;5050754;28;20487;-67
2022/11/23 09:57:28;;;;;;;9.43;2.00;;;17.80;75.90;;;;;;5034620;28;20029;-67
2022/11/23 09:59:58;;;;;;;6.93;1.80;;;17.80;75.90;;;;;;5050790;28;20120;-67
2022/11/23 10:02:25;;;;;;;5.55;1.75;;;17.80;75.90;;;;;;5034519;28;20029;-67
2022/11/23 10:04:51;;;;;;;7.25;2.17;;;17.80;75.70;;;;;;5050857;28;20021;-68
2022/11/23 10:07:37;;;;;;;5.47;1.60;;;17.70;75.80;;;;;;5051050;28;20021;-68
2022/11/23 10:10:17;;;;;;;5.43;2.03;;;17.80;75.90;;;;;;5031488;28;20095;-67
2022/11/23 10:12:52;;;;;;;6.53;1.50;;;17.80;75.90;;;;;;5031976;28;20033;-67
2022/11/23 10:15:34;;;;;;;4.38;1.48;;;17.80;75.90;;;;;;5037334;28;20106;-67
2022/11/23 10:18:05;;;;;;;5.55;1.63;;;17.70;75.80;;;;;;5035303;28;20522;-67
2022/11/23 10:20:55;;;;;;;5.10;1.40;;;17.70;75.80;;;;;;5051872;28;20029;-67
2022/11/23 10:23:33;;;;;;;6.07;1.65;;;17.80;75.80;;;;;;5035766;28;20025;-67
2022/11/23 10:25:59;;;;;;;7.30;1.55;;;17.70;75.80;;;;;;5052057;28;20024;-68
2022/11/23 10:28:28;;;;;;;4.88;1.65;;;17.70;75.70;;;;;;5051831;28;20021;-67
2022/11/23 10:31:09;;;;;;;4.60;1.50;;;17.70;75.70;;;;;;5034213;28;20074;-67
2022/11/23 10:33:57;;;;;;;6.30;1.60;;;17.70;75.70;;;;;;5019549;28;20495;-67
2022/11/23 10:36:23;;;;;;;7.18;1.88;;;17.70;75.80;;;;;;5050440;28;20041;-67
2022/11/23 10:38:51;;;;;;;6.85;1.85;;;17.70;75.70;;;;;;5051391;28;20025;-67
2022/11/23 10:41:17;;;;;;;6.32;2.03;;;17.70;75.80;;;;;;5050612;28;20159;-67
2022/11/23 10:43:44;;;;;;;6.60;1.73;;;17.70;75.80;;;;;;5051545;28;20100;-68
2022/11/23 10:46:26;;;;;;;7.90;1.75;;;17.70;75.70;;;;;;5051738;28;20032;-67
2022/11/23 10:48:52;;;;;;;5.70;1.80;;;17.70;75.70;;;;;;5052430;28;20033;-68
2022/11/23 10:51:31;;;;;;;5.47;1.60;;;17.70;75.70;;;;;;5020949;28;20029;-67
2022/11/23 10:54:22;;;;;;;5.55;1.75;;;17.70;75.70;;;;;;5053923;28;20029;-67
2022/11/23 10:56:49;;;;;;;9.32;2.05;;;17.70;75.70;;;;;;5038034;28;20479;-67
2022/11/23 10:59:32;;;;;;;6.38;1.70;;;17.70;75.70;;;;;;5054893;28;20515;-67
2022/11/23 11:02:19;;;;;;;5.05;2.00;;;17.70;75.70;;;;;;5054982;28;20029;-67
2022/11/23 11:04:45;;;;;;;5.82;1.85;;;17.70;75.70;;;;;;5053765;28;20203;-68
2022/11/23 11:07:30;;;;;;;5.72;1.73;;;17.70;75.50;;;;;;5053744;28;20130;-67
2022/11/23 11:09:59;;;;;;;7.10;2.08;;;17.70;75.60;;;;;;5018216;28;20022;-67
2022/11/23 11:12:26;;;;;;;5.53;2.10;;;17.70;75.60;;;;;;5033779;28;20037;-67
2022/11/23 11:14:56;;;;;;;7.03;2.17;;;17.70;75.60;;;;;;5035296;28;20025;-67
2022/11/23 11:17:27;;;;;;;8.65;1.70;;;17.70;75.50;;;;;;5037405;28;20048;-67
2022/11/23 11:19:52;;;;;;;5.00;1.55;;;17.70;75.40;;;;;;5053442;28;20443;-68
2022/11/23 11:22:33;;;;;;;6.90;1.98;;;17.70;75.40;;;;;;5053197;28;20056;-67
2022/11/23 11:24:59;;;;;;;6.18;1.50;;;17.70;75.40;;;;;;5037236;28;20052;-67
2022/11/23 11:27:25;;;;;;;5.22;1.60;;;17.70;75.30;;;;;;5036951;28;20025;-67
2022/11/23 11:29:53;;;;;;;4.43;1.77;;;17.70;75.20;;;;;;5036838;28;20021;-67
2022/11/23 11:32:34;;;;;;;5.47;1.63;;;17.70;75.30;;;;;;5036777;28;20562;-67
2022/11/23 11:35:08;;;;;;;6.07;1.80;;;17.70;75.40;;;;;;5053300;28;20025;-67
2022/11/23 11:37:46;;;;;;;4.30;1.33;;;17.70;75.30;;;;;;5037306;28;20120;-67
2022/11/23 11:40:38;;;;;;;8.43;1.60;;;17.60;75.20;;;;;;5054436;28;20025;-67
2022/11/23 11:43:20;;;;;;;7.95;1.73;;;17.60;75.20;;;;;;5054017;28;20391;-68
2022/11/23 11:45:57;;;;;;;6.28;1.58;;;17.60;75.20;;;;;;5053072;28;20028;-67
2022/11/23 11:48:46;;;;;;;4.30;1.52;;;17.60;75.20;;;;;;5036543;28;20391;-67
2022/11/23 11:51:17;;;;;;;6.55;2.10;;;17.60;75.10;;;;;;5052761;28;20024;-67
2022/11/23 11:53:55;;;;;;;5.00;1.88;;;17.60;75.10;;;;;;5036847;28;20035;-68
2022/11/23 11:56:26;;;;;;;4.70;1.65;;;17.60;75.10;;;;;;5052956;28;20021;-67
2022/11/23 11:59:09;;;;;;;6.03;2.03;;;17.70;75.10;;;;;;5052230;28;20053;-67
2022/11/23 12:01:35;;;;;;;;;;;17.70;75.00;;;;;;5052610;28;20120;-67
2022/11/23 12:04:11;;;;;;;6.78;2.00;;;17.60;75.00;;;;;;5052971;28;19905;-67
2022/11/23 12:06:45;;;;;;;8.82;2.05;;;17.60;76.10;;;;;;5052498;28;20029;-68
2022/11/23 12:09:20;;;;;;;7.75;2.05;;;17.60;75.10;;;;;;5021682;28;20113;-68
2022/11/23 12:11:46;;;;;;;4.32;1.63;;;17.60;75.10;;;;;;5032474;28;20492;-67
2022/11/23 12:14:12;;;;;;;7.68;1.77;;;17.60;75.00;;;;;;5033923;28;20036;-67
2022/11/23 12:16:44;;;;;;;5.35;2.13;;;17.60;74.70;;;;;;5048889;28;20025;-67
2022/11/23 12:19:16;;;;;;;5.22;1.55;;;17.60;74.90;;;;;;5052343;28;20021;-68
2022/11/23 12:22:04;;;;;;;6.93;2.03;;;17.60;74.90;;;;;;5052108;28;20037;-67
2022/11/23 12:24:58;;;;;;;5.72;1.42;;;17.60;74.80;;;;;;5052480;28;20025;-67
2022/11/23 12:27:27;;;;;;;5.60;1.73;;;17.60;74.60;;;;;;5052398;28;20017;-67
2022/11/23 12:30:34;;;;;;;9.65;1.80;;;17.60;74.70;;;;;;5053366;28;20488;-67
2022/11/23 12:33:00;;;;;;;4.45;1.70;;;17.60;74.60;;;;;;5053232;28;20514;-67
2022/11/23 12:35:38;;;;;;;6.18;1.50;;;17.60;74.70;;;;;;5052912;28;20029;-67
2022/11/23 12:38:28;;;;;;;5.93;1.90;;;17.60;74.60;;;;;;5052108;28;20020;-67
2022/11/23 12:41:50;;;;;;;5.57;1.38;;;17.60;74.60;;;;;;5051945;28;20029;-67
2022/11/23 12:44:40;;;;;;;5.72;1.75;;;17.60;74.60;;;;;;5052470;28;20124;-67
2022/11/23 12:47:22;;;;;;;5.30;1.50;;;17.60;74.60;;;;;;5053065;28;20029;-67
2022/11/23 12:49:54;;;;;;;5.97;1.98;;;17.60;74.50;;;;;;5051552;28;20486;-68
2022/11/23 12:52:57;;;;;;;6.82;1.80;;;17.60;74.50;;;;;;5035843;28;20017;-67
2022/11/23 12:55:24;;;;;;;;;;;17.60;74.60;;;;;;5053531;28;20100;-67